createdAt,value
2023-03-14T00:00:59.204Z,0.90
2023-03-14T00:02:21.669Z,0.95
2023-03-14T00:03:45.401Z,0.80
2023-03-14T00:05:09.023Z,0.50
2023-03-14T00:06:32.601Z,0.75
2023-03-14T00:07:55.052Z,0.73
2023-03-14T00:09:18.583Z,0.50
2023-03-14T00:10:42.140Z,1.05
2023-03-14T00:12:07.754Z,1.17
2023-03-14T00:13:32.500Z,0.82
2023-03-14T00:14:54.922Z,0.90
2023-03-14T00:16:18.560Z,0.80
2023-03-14T00:17:44.596Z,0.95
2023-03-14T00:19:07.001Z,0.80
2023-03-14T00:20:30.397Z,0.75
2023-03-14T00:21:52.950Z,1.20
2023-03-14T00:23:16.340Z,0.70
2023-03-14T00:24:38.718Z,0.70
2023-03-14T00:26:02.664Z,0.75
2023-03-14T00:27:30.935Z,0.88
2023-03-14T00:28:55.582Z,1.08
2023-03-14T00:30:19.434Z,0.68
2023-03-14T00:31:42.882Z,0.80
2023-03-14T00:33:13.701Z,0.60
2023-03-14T00:34:36.126Z,0.77
2023-03-14T00:36:00.754Z,0.70
2023-03-14T00:37:26.234Z,0.80
2023-03-14T00:38:52.096Z,0.85
2023-03-14T00:40:15.861Z,1.02
2023-03-14T00:41:39.300Z,0.85
2023-03-14T00:43:02.676Z,0.82
2023-03-14T00:44:27.535Z,1.20
2023-03-14T00:45:51.068Z,1.08
2023-03-14T00:47:13.476Z,0.90
2023-03-14T00:48:37.215Z,0.77
2023-03-14T00:49:59.694Z,0.82
2023-03-14T00:51:23.074Z,1.00
2023-03-14T00:52:47.411Z,0.88
2023-03-14T00:54:11.066Z,0.88
2023-03-14T00:55:36.749Z,0.90
2023-03-14T00:57:00.182Z,1.10
2023-03-14T00:58:22.629Z,0.85
2023-03-14T00:59:47.368Z,1.02
2023-03-14T01:01:12.644Z,0.70
2023-03-14T01:02:36.095Z,0.80
2023-03-14T01:03:58.524Z,0.80
2023-03-14T01:05:22.033Z,0.93
2023-03-14T01:06:45.691Z,0.80
2023-03-14T01:08:08.577Z,0.90
2023-03-14T01:09:32.010Z,0.98
2023-03-14T01:10:54.414Z,0.77
2023-03-14T01:12:17.778Z,0.93
2023-03-14T01:13:40.483Z,0.70
2023-03-14T01:15:05.845Z,0.90
2023-03-14T01:16:30.132Z,0.98
2023-03-14T01:17:53.720Z,0.80
2023-03-14T01:19:17.127Z,0.63
2023-03-14T01:20:39.601Z,0.70
2023-03-14T01:22:03.118Z,0.55
2023-03-14T01:23:25.666Z,0.85
2023-03-14T01:24:49.064Z,0.63
2023-03-14T01:26:12.433Z,0.90
2023-03-14T01:27:35.944Z,0.88
2023-03-14T01:29:01.584Z,0.32
2023-03-14T01:30:26.415Z,0.70
2023-03-14T01:31:50.321Z,0.75
2023-03-14T01:33:14.265Z,0.63
2023-03-14T01:34:39.285Z,0.50
2023-03-14T01:36:03.240Z,0.73
2023-03-14T01:37:26.714Z,0.60
2023-03-14T01:38:50.144Z,1.17
2023-03-14T01:40:17.352Z,0.85
2023-03-14T01:41:40.981Z,1.05
2023-03-14T01:43:14.017Z,0.52
2023-03-14T01:44:54.330Z,0.82
2023-03-14T01:46:40.761Z,0.80
2023-03-14T01:48:03.154Z,0.77
2023-03-14T01:49:30.157Z,0.43
2023-03-14T01:50:52.612Z,0.65
2023-03-14T01:52:18.544Z,0.40
2023-03-14T01:53:41.971Z,0.77
2023-03-14T01:55:07.739Z,0.60
2023-03-14T01:56:30.829Z,0.68
2023-03-14T01:57:57.450Z,0.70
2023-03-14T01:59:21.350Z,0.63
2023-03-14T02:00:43.882Z,0.50
2023-03-14T02:02:11.037Z,0.65
2023-03-14T02:03:38.941Z,0.70
2023-03-14T02:05:02.480Z,0.65
2023-03-14T02:06:27.611Z,0.60
2023-03-14T02:07:53.751Z,0.90
2023-03-14T02:09:17.778Z,0.70
2023-03-14T02:10:43.381Z,0.60
2023-03-14T02:12:07.711Z,0.68
2023-03-14T02:13:30.178Z,0.52
2023-03-14T02:14:54.516Z,0.40
2023-03-14T02:16:17.060Z,1.13
2023-03-14T02:17:43.751Z,0.80
2023-03-14T02:19:07.223Z,0.80
2023-03-14T02:20:34.397Z,0.65
2023-03-14T02:22:02.621Z,0.70
2023-03-14T02:23:32.844Z,0.70
2023-03-14T02:25:01.833Z,0.60
2023-03-14T02:26:28.374Z,0.70
2023-03-14T02:27:53.158Z,0.88
2023-03-14T02:29:15.630Z,0.50
2023-03-14T02:30:39.275Z,0.70
2023-03-14T02:32:02.233Z,0.52
2023-03-14T02:33:26.191Z,0.80
2023-03-14T02:34:51.939Z,0.60
2023-03-14T02:36:16.581Z,0.75
2023-03-14T02:37:42.951Z,0.60
2023-03-14T02:39:12.638Z,0.63
2023-03-14T02:40:35.049Z,0.73
2023-03-14T02:41:58.495Z,0.50
2023-03-14T02:43:24.252Z,0.60
2023-03-14T02:44:53.153Z,0.50
2023-03-14T02:46:18.335Z,0.60
2023-03-14T02:47:44.558Z,0.57
2023-03-14T02:49:13.206Z,0.60
2023-03-14T02:50:35.836Z,0.55
2023-03-14T02:51:59.208Z,0.43
2023-03-14T02:53:25.091Z,0.77
2023-03-14T02:54:48.488Z,1.00
2023-03-14T02:56:11.151Z,0.70
2023-03-14T02:57:34.558Z,1.05
2023-03-14T02:58:59.725Z,0.47
2023-03-14T03:00:23.212Z,0.63
2023-03-14T03:01:46.641Z,0.57
2023-03-14T03:03:09.078Z,0.38
2023-03-14T03:04:32.459Z,0.50
2023-03-14T03:05:56.248Z,0.50
2023-03-14T03:07:20.128Z,0.90
2023-03-14T03:08:42.689Z,0.65
2023-03-14T03:10:06.958Z,0.50
2023-03-14T03:11:31.296Z,0.70
2023-03-14T03:12:53.749Z,0.50
2023-03-14T03:14:18.903Z,0.50
2023-03-14T03:15:41.577Z,0.45
2023-03-14T03:17:05.972Z,0.60
2023-03-14T03:18:28.417Z,0.70
2023-03-14T03:19:51.868Z,0.60
2023-03-14T03:21:16.730Z,0.60
2023-03-14T03:22:40.403Z,0.60
2023-03-14T03:24:03.793Z,0.47
2023-03-14T03:25:27.249Z,0.40
2023-03-14T03:26:50.638Z,0.40
2023-03-14T03:28:13.048Z,0.60
2023-03-14T03:29:37.815Z,0.50
2023-03-14T03:31:00.282Z,0.30
2023-03-14T03:32:23.718Z,0.57
2023-03-14T03:33:50.408Z,0.60
2023-03-14T03:35:13.116Z,0.73
2023-03-14T03:36:36.530Z,0.70
2023-03-14T03:37:58.969Z,0.80
2023-03-14T03:39:23.339Z,0.50
2023-03-14T03:40:45.757Z,0.60
2023-03-14T03:42:09.175Z,0.50
2023-03-14T03:43:32.703Z,0.60
2023-03-14T03:44:56.564Z,0.65
2023-03-14T03:46:20.002Z,0.50
2023-03-14T03:47:43.406Z,0.65
2023-03-14T03:49:05.766Z,0.70
2023-03-14T03:50:29.941Z,0.73
2023-03-14T03:51:53.394Z,0.43
2023-03-14T03:53:26.924Z,0.60
2023-03-14T03:54:54.110Z,0.45
2023-03-14T03:56:17.732Z,0.63
2023-03-14T03:57:41.411Z,0.40
2023-03-14T03:59:04.810Z,0.60
2023-03-14T04:00:29.659Z,0.30
2023-03-14T04:01:53.305Z,0.57
2023-03-14T04:03:15.943Z,0.30
2023-03-14T04:04:39.676Z,0.70
2023-03-14T04:06:04.428Z,0.93
2023-03-14T04:07:27.860Z,0.32
2023-03-14T04:08:51.247Z,0.68
2023-03-14T04:10:14.705Z,0.73
2023-03-14T04:11:37.287Z,0.65
2023-03-14T04:13:00.740Z,1.00
2023-03-14T04:14:23.251Z,0.47
2023-03-14T04:15:48.098Z,0.57
2023-03-14T04:17:10.496Z,0.80
2023-03-14T04:18:34.693Z,0.60
2023-03-14T04:19:58.214Z,0.60
2023-03-14T04:21:20.716Z,0.52
2023-03-14T04:22:44.736Z,0.57
2023-03-14T04:24:09.336Z,0.82
2023-03-14T04:25:32.846Z,0.40
2023-03-14T04:26:55.276Z,0.70
2023-03-14T04:28:18.672Z,0.40
2023-03-14T04:29:41.073Z,0.60
2023-03-14T04:31:11.943Z,0.52
2023-03-14T04:32:35.388Z,0.55
2023-03-14T04:33:58.835Z,0.47
2023-03-14T04:35:27.097Z,0.47
2023-03-14T04:36:50.517Z,0.65
2023-03-14T04:38:14.269Z,0.80
2023-03-14T04:39:37.624Z,0.77
2023-03-14T04:41:01.064Z,0.60
2023-03-14T04:42:24.512Z,0.40
2023-03-14T04:43:47.899Z,0.52
2023-03-14T04:45:11.590Z,0.60
2023-03-14T04:46:36.439Z,0.45
2023-03-14T04:47:59.006Z,0.65
2023-03-14T04:49:22.411Z,0.77
2023-03-14T04:50:47.368Z,0.68
2023-03-14T04:52:10.982Z,0.60
2023-03-14T04:53:35.031Z,0.63
2023-03-14T04:54:57.504Z,0.70
2023-03-14T04:56:20.880Z,0.47
2023-03-14T04:57:44.062Z,0.70
2023-03-14T04:59:07.566Z,0.60
2023-03-14T05:00:29.937Z,0.82
2023-03-14T05:01:54.739Z,0.65
2023-03-14T05:03:19.509Z,0.60
2023-03-14T05:04:43.029Z,0.50
2023-03-14T05:06:07.541Z,0.70
2023-03-14T05:07:29.942Z,0.80
2023-03-14T05:08:53.372Z,0.60
2023-03-14T05:10:15.891Z,0.77
2023-03-14T05:11:39.317Z,0.65
2023-03-14T05:13:01.733Z,1.08
2023-03-14T05:14:25.156Z,1.20
2023-03-14T05:15:47.619Z,1.40
2023-03-14T05:17:15.269Z,1.10
2023-03-14T05:18:38.888Z,1.05
2023-03-14T05:20:02.370Z,1.05
2023-03-14T05:21:25.858Z,1.30
2023-03-14T05:22:49.515Z,1.40
2023-03-14T05:24:11.919Z,1.00
2023-03-14T05:25:36.108Z,1.05
2023-03-14T05:26:59.677Z,0.75
2023-03-14T05:28:23.054Z,0.85
2023-03-14T05:29:46.582Z,0.77
2023-03-14T05:31:11.158Z,0.43
2023-03-14T05:32:36.023Z,0.70
2023-03-14T05:33:58.443Z,0.60
2023-03-14T05:35:21.809Z,0.50
2023-03-14T05:36:49.102Z,0.35
2023-03-14T05:38:12.495Z,0.80
2023-03-14T05:39:35.888Z,0.80
2023-03-14T05:40:59.311Z,0.82
2023-03-14T05:42:23.531Z,1.00
2023-03-14T05:43:46.897Z,0.80
2023-03-14T05:45:10.905Z,0.73
2023-03-14T05:46:33.306Z,0.77
2023-03-14T05:47:58.865Z,0.88
2023-03-14T05:49:22.320Z,0.60
2023-03-14T05:50:45.185Z,1.00
2023-03-14T05:52:08.728Z,0.88
2023-03-14T05:53:32.436Z,0.80
2023-03-14T05:54:54.873Z,0.88
2023-03-14T05:56:18.744Z,1.38
2023-03-14T05:57:42.140Z,1.13
2023-03-14T05:59:05.684Z,0.90
2023-03-14T06:00:29.279Z,0.82
2023-03-14T06:01:52.733Z,1.00
2023-03-14T06:03:17.575Z,0.77
2023-03-14T06:04:41.832Z,0.50
2023-03-14T06:06:05.516Z,0.50
2023-03-14T06:07:28.907Z,0.68
2023-03-14T06:08:52.255Z,0.80
2023-03-14T06:10:15.764Z,0.65
2023-03-14T06:11:38.176Z,0.98
2023-03-14T06:13:01.546Z,1.15
2023-03-14T06:14:23.978Z,0.73
2023-03-14T06:15:47.433Z,0.80
2023-03-14T06:17:09.826Z,0.80
2023-03-14T06:18:34.535Z,0.73
2023-03-14T06:19:58.007Z,0.60
2023-03-14T06:21:21.564Z,0.63
2023-03-14T06:22:45.009Z,1.02
2023-03-14T06:24:07.541Z,0.80
2023-03-14T06:25:30.943Z,0.80
2023-03-14T06:26:54.334Z,0.70
2023-03-14T06:28:17.803Z,0.85
2023-03-14T06:29:41.218Z,0.85
2023-03-14T06:31:04.502Z,0.90
2023-03-14T06:32:29.127Z,0.77
2023-03-14T06:33:53.921Z,0.90
2023-03-14T06:35:17.430Z,0.63
2023-03-14T06:36:39.861Z,1.00
2023-03-14T06:38:09.648Z,0.88
2023-03-14T06:39:33.024Z,0.80
2023-03-14T06:40:55.413Z,1.02
2023-03-14T06:42:18.778Z,1.00
2023-03-14T06:43:42.975Z,1.05
2023-03-14T06:45:07.509Z,0.95
2023-03-14T06:46:30.919Z,0.70
2023-03-14T06:47:54.295Z,0.75
2023-03-14T06:49:18.081Z,1.25
2023-03-14T06:50:41.490Z,0.80
2023-03-14T06:52:04.953Z,1.13
2023-03-14T06:53:28.350Z,0.70
2023-03-14T06:54:51.884Z,0.88
2023-03-14T06:56:15.331Z,1.10
2023-03-14T06:57:38.720Z,0.80
2023-03-14T06:59:02.138Z,0.77
2023-03-14T07:00:25.958Z,0.90
2023-03-14T07:01:51.663Z,0.85
2023-03-14T07:03:16.297Z,0.95
2023-03-14T07:04:41.254Z,0.60
2023-03-14T07:06:03.838Z,0.70
2023-03-14T07:07:27.225Z,0.98
2023-03-14T07:08:50.937Z,0.70
2023-03-14T07:10:14.333Z,0.70
2023-03-14T07:11:38.529Z,0.63
2023-03-14T07:13:02.011Z,0.80
2023-03-14T07:14:25.564Z,0.98
2023-03-14T07:15:49.012Z,0.80
2023-03-14T07:17:12.474Z,0.68
2023-03-14T07:18:35.953Z,0.73
2023-03-14T07:20:01.853Z,1.35
2023-03-14T07:21:25.237Z,1.20
2023-03-14T07:22:50.463Z,0.75
2023-03-14T07:24:13.918Z,1.08
2023-03-14T07:25:37.364Z,1.67
2023-03-14T07:27:00.743Z,1.05
2023-03-14T07:28:24.679Z,0.88
2023-03-14T07:29:48.037Z,1.10
2023-03-14T07:31:11.954Z,0.82
2023-03-14T07:32:35.633Z,0.77
2023-03-14T07:33:59.121Z,0.90
2023-03-14T07:35:23.895Z,0.95
2023-03-14T07:36:47.267Z,1.42
2023-03-14T07:38:10.747Z,4.22
2023-03-14T07:39:38.284Z,1.50
2023-03-14T07:41:02.243Z,1.30
2023-03-14T07:42:25.672Z,1.00
2023-03-14T07:43:49.067Z,1.05
2023-03-14T07:45:14.734Z,0.90
2023-03-14T07:46:38.174Z,0.90
2023-03-14T07:48:03.001Z,1.00
2023-03-14T07:49:26.491Z,2.75
2023-03-14T07:50:52.544Z,1.30
2023-03-14T07:52:16.114Z,1.25
2023-03-14T07:53:40.269Z,1.08
2023-03-14T07:55:04.009Z,1.10
2023-03-14T07:56:27.534Z,1.88
2023-03-14T07:57:50.926Z,1.30
2023-03-14T07:59:14.346Z,2.03
2023-03-14T08:00:37.794Z,1.30
2023-03-14T08:02:01.327Z,1.83
2023-03-14T08:03:24.692Z,1.35
2023-03-14T08:04:48.064Z,1.20
2023-03-14T08:06:12.849Z,0.80
2023-03-14T08:07:36.663Z,1.10
2023-03-14T08:09:00.084Z,0.98
2023-03-14T08:10:23.567Z,1.05
2023-03-14T08:11:47.030Z,1.05
2023-03-14T08:13:10.715Z,0.88
2023-03-14T08:14:34.457Z,1.00
2023-03-14T08:15:57.974Z,1.10
2023-03-14T08:17:21.391Z,0.90
2023-03-14T08:18:45.674Z,0.85
2023-03-14T08:20:12.556Z,0.70
2023-03-14T08:21:37.280Z,1.25
2023-03-14T08:23:01.440Z,1.55
2023-03-14T08:24:24.848Z,1.05
2023-03-14T08:25:50.398Z,1.05
2023-03-14T08:27:15.324Z,1.30
2023-03-14T08:28:38.831Z,1.35
2023-03-14T08:30:02.222Z,0.60
2023-03-14T08:31:25.774Z,0.75
2023-03-14T08:32:49.546Z,1.63
2023-03-14T08:34:12.968Z,1.55
2023-03-14T08:35:36.479Z,1.40
2023-03-14T08:37:02.728Z,1.23
2023-03-14T08:38:27.668Z,1.52
2023-03-14T08:39:51.052Z,1.10
2023-03-14T08:41:18.467Z,1.35
2023-03-14T08:42:42.656Z,1.10
2023-03-14T08:44:06.164Z,1.30
2023-03-14T08:45:29.646Z,1.88
2023-03-14T08:46:53.910Z,1.38
2023-03-14T08:48:17.283Z,1.17
2023-03-14T08:49:41.044Z,1.05
2023-03-14T08:51:08.533Z,1.20
2023-03-14T08:52:34.328Z,1.23
2023-03-14T08:53:57.800Z,0.85
2023-03-14T08:55:21.231Z,1.42
2023-03-14T08:56:44.590Z,1.08
2023-03-14T08:58:07.995Z,1.00
2023-03-14T08:59:31.484Z,1.08
2023-03-14T09:00:54.876Z,1.23
2023-03-14T09:02:18.384Z,1.35
2023-03-14T09:03:41.816Z,1.10
2023-03-14T09:05:07.322Z,0.93
2023-03-14T09:06:30.744Z,1.23
2023-03-14T09:07:55.504Z,1.00
2023-03-14T09:09:20.557Z,1.02
2023-03-14T09:10:44.017Z,1.23
2023-03-14T09:12:07.833Z,0.90
2023-03-14T09:13:31.576Z,1.27
2023-03-14T09:14:54.975Z,1.50
2023-03-14T09:16:18.422Z,1.02
2023-03-14T09:17:41.854Z,1.40
2023-03-14T09:19:05.384Z,2.38
2023-03-14T09:20:29.334Z,1.05
2023-03-14T09:21:52.750Z,0.80
2023-03-14T09:23:17.531Z,0.98
2023-03-14T09:24:42.083Z,0.98
2023-03-14T09:26:06.476Z,0.75
2023-03-14T09:27:29.915Z,1.10
2023-03-14T09:28:53.268Z,0.88
2023-03-14T09:30:16.903Z,0.85
2023-03-14T09:31:40.437Z,1.10
2023-03-14T09:33:03.915Z,1.23
2023-03-14T09:34:27.347Z,0.90
2023-03-14T09:35:50.877Z,1.83
2023-03-14T09:37:14.358Z,0.80
2023-03-14T09:38:39.138Z,1.13
2023-03-14T09:40:06.784Z,1.13
2023-03-14T09:41:31.021Z,1.20
2023-03-14T09:42:55.879Z,0.93
2023-03-14T09:44:22.737Z,1.10
2023-03-14T09:45:47.361Z,1.00
2023-03-14T09:47:14.728Z,1.20
2023-03-14T09:48:38.943Z,1.30
2023-03-14T09:50:02.690Z,0.70
2023-03-14T09:51:27.052Z,0.80
2023-03-14T09:52:52.479Z,1.13
2023-03-14T09:54:27.498Z,1.65
2023-03-14T09:55:52.686Z,1.05
2023-03-14T09:57:17.898Z,1.23
2023-03-14T09:58:42.776Z,0.98
2023-03-14T10:00:15.900Z,0.65
2023-03-14T10:01:39.311Z,1.05
2023-03-14T10:03:13.632Z,1.20
2023-03-14T10:04:45.441Z,1.48
2023-03-14T10:06:14.687Z,0.75
2023-03-14T10:07:39.208Z,1.02
2023-03-14T10:09:02.645Z,1.23
2023-03-14T10:10:28.389Z,1.00
2023-03-14T10:11:51.814Z,0.80
2023-03-14T10:13:18.534Z,0.68
2023-03-14T10:14:49.479Z,1.27
2023-03-14T10:16:12.929Z,0.80
2023-03-14T10:17:42.345Z,0.90
2023-03-14T10:19:07.430Z,1.42
2023-03-14T10:20:34.517Z,1.65
2023-03-14T10:21:58.064Z,1.65
2023-03-14T10:23:31.181Z,1.05
2023-03-14T10:24:57.046Z,1.40
2023-03-14T10:26:26.975Z,1.08
2023-03-14T10:27:49.405Z,1.00
2023-03-14T10:29:14.756Z,1.63
2023-03-14T10:30:45.292Z,1.25
2023-03-14T10:32:12.735Z,1.60
2023-03-14T10:33:36.653Z,5.97
2023-03-14T10:35:22.849Z,3.72
2023-03-14T10:36:46.229Z,3.83
2023-03-14T10:38:15.606Z,2.83
2023-03-14T10:39:44.826Z,8.52
2023-03-14T10:41:18.987Z,2.53
2023-03-14T10:42:48.070Z,3.90
2023-03-14T10:44:12.382Z,1.35
2023-03-14T10:45:38.475Z,1.45
2023-03-14T10:47:03.068Z,0.98
2023-03-14T10:48:33.144Z,3.90
2023-03-14T10:49:57.158Z,1.58
2023-03-14T10:51:28.512Z,1.38
2023-03-14T10:53:02.164Z,2.40
2023-03-14T10:54:26.259Z,1.10
2023-03-14T10:55:50.253Z,2.67
2023-03-14T10:57:14.227Z,2.63
2023-03-14T10:58:42.826Z,1.50
2023-03-14T11:00:09.329Z,1.30
2023-03-14T11:01:39.663Z,1.00
2023-03-14T11:03:11.897Z,1.75
2023-03-14T11:04:50.952Z,0.98
2023-03-14T11:06:17.232Z,0.90
2023-03-14T11:07:42.538Z,1.10
2023-03-14T11:09:12.969Z,2.35
2023-03-14T11:10:39.378Z,1.13
2023-03-14T11:12:08.452Z,1.85
2023-03-14T11:13:43.928Z,1.40
2023-03-14T11:15:11.863Z,1.15
2023-03-14T11:16:43.010Z,1.42
2023-03-14T11:18:38.667Z,0.57
2023-03-14T11:20:16.973Z,3.03
2023-03-14T11:21:44.075Z,4.97
2023-03-14T11:23:11.631Z,3.83
2023-03-14T11:24:43.429Z,1.35
2023-03-14T11:26:16.871Z,2.33
2023-03-14T11:27:44.712Z,1.63
2023-03-14T11:29:22.077Z,1.92
2023-03-14T11:30:50.863Z,3.33
2023-03-14T11:32:16.851Z,1.50
2023-03-14T11:33:41.671Z,2.00
2023-03-14T11:35:10.837Z,1.48
2023-03-14T11:36:38.620Z,1.92
2023-03-14T11:38:10.054Z,4.32
2023-03-14T11:39:39.966Z,2.15
2023-03-14T11:41:03.753Z,0.98
2023-03-14T11:42:28.310Z,2.92
2023-03-14T11:43:56.322Z,4.88
2023-03-14T11:45:29.618Z,3.63
2023-03-14T11:47:00.037Z,3.25
2023-03-14T11:48:31.123Z,3.83
2023-03-14T11:49:59.076Z,3.90
2023-03-14T11:51:28.040Z,2.25
2023-03-14T11:52:55.075Z,3.63
2023-03-14T11:54:20.933Z,3.33
2023-03-14T11:55:44.954Z,3.17
2023-03-14T11:57:13.305Z,3.63
2023-03-14T11:58:38.076Z,3.70
2023-03-14T12:00:05.638Z,1.27
2023-03-14T12:01:44.995Z,3.92
2023-03-14T12:03:17.098Z,1.35
2023-03-14T12:04:50.833Z,2.03
2023-03-14T12:06:19.860Z,3.42
2023-03-14T12:07:50.080Z,1.95
2023-03-14T12:09:14.067Z,1.92
2023-03-14T12:10:39.405Z,1.40
2023-03-14T12:12:05.920Z,2.17
2023-03-14T12:13:31.788Z,1.20
2023-03-14T12:14:58.328Z,0.95
2023-03-14T12:16:36.280Z,0.82
2023-03-14T12:17:59.965Z,1.00
2023-03-14T12:19:35.711Z,1.00
2023-03-14T12:21:01.657Z,1.88
2023-03-14T12:22:31.197Z,0.88
2023-03-14T12:23:56.130Z,3.47
2023-03-14T12:25:21.302Z,0.68
2023-03-14T12:26:54.316Z,0.90
2023-03-14T12:28:22.330Z,1.55
2023-03-14T12:30:02.387Z,1.10
2023-03-14T12:31:44.819Z,1.38
2023-03-14T12:33:33.320Z,1.20
2023-03-14T12:34:56.722Z,1.63
2023-03-14T12:36:56.833Z,0.98
2023-03-14T12:38:28.103Z,1.35
2023-03-14T12:40:01.328Z,0.88
2023-03-14T12:41:27.331Z,1.42
2023-03-14T12:42:59.436Z,0.90
2023-03-14T12:44:45.258Z,1.40
2023-03-14T12:46:21.691Z,0.90
2023-03-14T12:47:54.594Z,1.85
2023-03-14T12:49:18.680Z,0.77
2023-03-14T12:50:46.290Z,1.00
2023-03-14T12:52:19.146Z,1.10
2023-03-14T12:54:21.937Z,1.08
2023-03-14T12:55:49.140Z,0.50
2023-03-14T12:57:23.659Z,1.60
2023-03-14T12:58:50.116Z,1.00
2023-03-14T13:00:22.200Z,1.60
2023-03-14T13:01:50.756Z,2.10
2023-03-14T13:03:27.167Z,1.60
2023-03-14T13:04:53.054Z,1.00
2023-03-14T13:06:54.690Z,0.77
2023-03-14T13:08:36.615Z,0.57
2023-03-14T13:10:20.277Z,0.80
2023-03-14T13:11:44.031Z,0.90
2023-03-14T13:13:17.745Z,1.90
2023-03-14T13:14:44.626Z,1.05
2023-03-14T13:16:08.266Z,1.58
2023-03-14T13:17:37.318Z,1.13
2023-03-14T13:19:06.154Z,1.77
2023-03-14T13:20:34.225Z,1.15
2023-03-14T13:22:02.189Z,1.20
2023-03-14T13:23:28.301Z,1.23
2023-03-14T13:24:50.708Z,2.13
2023-03-14T13:26:17.802Z,1.65
2023-03-14T13:27:41.355Z,1.27
2023-03-14T13:29:16.443Z,3.17
2023-03-14T13:30:43.732Z,1.88
2023-03-14T13:32:18.598Z,1.77
2023-03-14T13:33:43.700Z,2.85
2023-03-14T13:35:16.904Z,2.10
2023-03-14T13:36:40.557Z,3.13
2023-03-14T13:38:11.429Z,3.35
2023-03-14T13:39:35.801Z,1.38
2023-03-14T13:41:00.980Z,3.00
2023-03-14T13:42:26.788Z,2.65
2023-03-14T13:43:52.186Z,0.93
2023-03-14T13:45:17.580Z,2.83
2023-03-14T13:46:42.374Z,1.25
2023-03-14T13:48:05.629Z,1.63
2023-03-14T13:49:32.239Z,1.70
2023-03-14T13:50:58.815Z,0.90
2023-03-14T13:52:25.726Z,1.50
2023-03-14T13:53:58.630Z,0.75
2023-03-14T13:55:21.410Z,0.95
2023-03-14T13:56:44.942Z,1.52
2023-03-14T13:58:23.886Z,2.45
2023-03-14T14:00:01.780Z,1.38
2023-03-14T14:01:28.179Z,0.93
2023-03-14T14:02:52.536Z,0.65
2023-03-14T14:04:18.056Z,1.60
2023-03-14T14:05:42.423Z,0.68
2023-03-14T14:07:12.701Z,0.98
2023-03-14T14:08:38.247Z,0.70
2023-03-14T14:10:03.295Z,0.95
2023-03-14T14:11:47.102Z,1.83
2023-03-14T14:13:20.001Z,0.73
2023-03-14T14:14:45.826Z,0.80
2023-03-14T14:16:10.009Z,0.43
2023-03-14T14:17:36.272Z,0.68
2023-03-14T14:19:00.620Z,0.60
2023-03-14T14:20:27.600Z,0.77
2023-03-14T14:21:51.726Z,0.77
2023-03-14T14:23:20.252Z,0.57
2023-03-14T14:24:43.926Z,0.70
2023-03-14T14:26:09.268Z,0.60
2023-03-14T14:27:36.891Z,0.70
2023-03-14T14:29:06.121Z,1.23
2023-03-14T14:30:33.375Z,0.85
2023-03-14T14:32:13.985Z,0.73
2023-03-14T14:33:42.952Z,0.73
2023-03-14T14:35:07.353Z,0.80
2023-03-14T14:36:33.313Z,2.15
2023-03-14T14:37:55.733Z,1.23
2023-03-14T14:39:22.617Z,1.02
2023-03-14T14:40:47.667Z,0.50
2023-03-14T14:42:16.741Z,0.70
2023-03-14T14:43:42.581Z,1.08
2023-03-14T14:45:07.340Z,1.60
2023-03-14T14:46:33.015Z,0.45
2023-03-14T14:47:57.832Z,0.93
2023-03-14T14:49:22.047Z,0.93
2023-03-14T14:50:56.915Z,0.50
2023-03-14T14:52:22.642Z,1.00
2023-03-14T14:53:48.284Z,1.63
2023-03-14T14:55:19.886Z,5.68
2023-03-14T14:56:46.321Z,1.48
2023-03-14T14:58:22.648Z,0.73
2023-03-14T14:59:46.963Z,1.40
2023-03-14T15:01:13.248Z,2.03
2023-03-14T15:02:45.050Z,2.13
2023-03-14T15:04:15.973Z,1.58
2023-03-14T15:05:42.141Z,0.85
2023-03-14T15:07:05.988Z,0.55
2023-03-14T15:08:29.888Z,0.88
2023-03-14T15:09:53.350Z,1.27
2023-03-14T15:11:21.287Z,1.13
2023-03-14T15:12:44.730Z,1.00
2023-03-14T15:14:08.854Z,3.42
2023-03-14T15:15:31.481Z,6.25
2023-03-14T15:16:55.735Z,4.55
2023-03-14T15:18:20.592Z,9.55
2023-03-14T15:19:43.981Z,4.80
2023-03-14T15:21:07.562Z,7.35
2023-03-14T15:22:31.010Z,3.03
2023-03-14T15:23:54.992Z,2.85
2023-03-14T15:25:43.321Z,0.98
2023-03-14T15:27:03.755Z,0.60
2023-03-14T15:28:29.726Z,0.43
2023-03-14T15:29:53.129Z,0.50
2023-03-14T15:31:18.808Z,0.60
2023-03-14T15:32:41.434Z,0.75
2023-03-14T15:34:04.901Z,0.30
2023-03-14T15:35:28.268Z,0.55
2023-03-14T15:36:51.612Z,0.65
2023-03-14T15:38:17.032Z,0.50
2023-03-14T15:39:41.304Z,0.75
2023-03-14T15:41:04.745Z,1.23
2023-03-14T15:42:29.532Z,2.10
2023-03-14T15:43:53.627Z,0.30
2023-03-14T15:45:17.197Z,0.40
2023-03-14T15:46:40.570Z,0.63
2023-03-14T15:48:04.010Z,1.08
2023-03-14T15:49:27.410Z,0.50
2023-03-14T15:50:50.887Z,0.57
2023-03-14T15:52:14.500Z,0.73
2023-03-14T15:53:38.855Z,0.20
2023-03-14T15:55:02.206Z,0.52
2023-03-14T15:56:27.366Z,0.35
2023-03-14T15:57:52.360Z,0.20
2023-03-14T15:59:16.065Z,0.20
2023-03-14T16:00:39.784Z,0.50
2023-03-14T16:02:03.374Z,0.30
2023-03-14T16:03:26.767Z,0.50
2023-03-14T16:04:50.267Z,0.82
2023-03-14T16:06:13.782Z,0.47
2023-03-14T16:07:38.049Z,0.13
2023-03-14T16:09:01.452Z,0.40
2023-03-14T16:10:24.950Z,0.55
2023-03-14T16:11:49.059Z,0.55
2023-03-14T16:13:14.020Z,0.38
2023-03-14T16:14:37.495Z,0.20
2023-03-14T16:16:02.554Z,0.50
2023-03-14T16:17:26.129Z,0.40
2023-03-14T16:18:51.198Z,1.20
2023-03-14T16:20:14.986Z,0.63
2023-03-14T16:21:38.719Z,0.80
2023-03-14T16:23:02.181Z,0.50
2023-03-14T16:24:26.455Z,0.20
2023-03-14T16:25:49.876Z,0.50
2023-03-14T16:27:13.685Z,0.20
2023-03-14T16:28:38.721Z,0.32
2023-03-14T16:30:02.144Z,0.20
2023-03-14T16:31:26.061Z,0.40
2023-03-14T16:32:49.562Z,0.32
2023-03-14T16:34:13.088Z,0.30
2023-03-14T16:35:36.679Z,0.20
2023-03-14T16:37:00.122Z,0.10
2023-03-14T16:38:24.300Z,0.50
2023-03-14T16:40:10.650Z,0.85
2023-03-14T16:41:33.125Z,0.35
2023-03-14T16:44:41.432Z,0.30
2023-03-14T16:46:05.787Z,0.20
2023-03-14T16:47:31.908Z,0.30
2023-03-14T16:48:55.767Z,0.47
2023-03-14T16:50:19.345Z,0.60
2023-03-14T16:51:43.433Z,0.50
2023-03-14T16:53:11.463Z,0.55
2023-03-14T16:54:35.623Z,1.58
2023-03-14T16:56:00.617Z,1.02
2023-03-14T16:57:23.981Z,0.70
2023-03-14T16:58:47.624Z,1.42
2023-03-14T17:00:13.964Z,1.50
2023-03-14T17:01:38.032Z,1.30
2023-03-14T17:03:01.588Z,0.82
2023-03-14T17:04:25.361Z,2.53
2023-03-14T17:05:48.998Z,1.27
2023-03-14T17:07:12.479Z,0.70
2023-03-14T17:08:36.166Z,1.15
2023-03-14T17:10:00.428Z,1.33
2023-03-14T17:11:23.904Z,3.38
2023-03-14T17:12:47.350Z,1.55
2023-03-14T17:14:10.729Z,3.30
2023-03-14T17:15:35.629Z,1.00
2023-03-14T17:16:59.122Z,1.75
2023-03-14T17:18:22.491Z,2.13
2023-03-14T17:19:45.881Z,1.27
2023-03-14T17:21:09.824Z,1.85
2023-03-14T17:22:33.234Z,1.80
2023-03-14T17:23:56.688Z,3.05
2023-03-14T17:25:20.199Z,1.45
2023-03-14T17:26:43.426Z,1.33
2023-03-14T17:28:07.396Z,1.30
2023-03-14T17:29:30.755Z,1.40
2023-03-14T17:31:03.798Z,1.48
2023-03-14T17:32:27.415Z,2.05
2023-03-14T17:33:51.773Z,2.45
2023-03-14T17:35:14.146Z,1.42
2023-03-14T17:36:37.676Z,0.95
2023-03-14T17:38:01.499Z,1.50
2023-03-14T17:39:24.872Z,1.15
2023-03-14T17:40:49.242Z,1.35
2023-03-14T17:42:12.758Z,1.35
2023-03-14T17:43:36.403Z,1.40
2023-03-14T17:44:59.854Z,1.40
2023-03-14T17:46:25.794Z,1.70
2023-03-14T17:47:49.265Z,1.25
2023-03-14T17:49:12.701Z,1.05
2023-03-14T17:50:36.043Z,1.08
2023-03-14T17:51:59.393Z,1.60
2023-03-14T17:53:22.744Z,1.67
2023-03-14T17:54:46.945Z,1.75
2023-03-14T17:56:11.690Z,1.60
2023-03-14T17:57:35.384Z,1.88
2023-03-14T17:58:59.156Z,1.55
2023-03-14T18:00:24.178Z,1.55
2023-03-14T18:01:49.167Z,1.50
2023-03-14T18:03:12.897Z,1.33
2023-03-14T18:04:36.327Z,1.48
2023-03-14T18:06:00.295Z,1.52
2023-03-14T18:07:23.809Z,1.52
2023-03-14T18:08:47.226Z,2.00
2023-03-14T18:10:13.262Z,1.63
2023-03-14T18:11:37.481Z,1.50
2023-03-14T18:13:00.962Z,1.58
2023-03-14T18:14:24.377Z,1.17
2023-03-14T18:15:48.331Z,1.20
2023-03-14T18:17:14.071Z,0.82
2023-03-14T18:18:37.455Z,1.08
2023-03-14T18:20:00.815Z,1.52
2023-03-14T18:21:24.276Z,1.33
2023-03-14T18:22:47.936Z,1.17
2023-03-14T18:24:11.334Z,1.58
2023-03-14T18:25:34.754Z,1.80
2023-03-14T18:26:58.171Z,1.63
2023-03-14T18:28:23.111Z,1.73
2023-03-14T18:29:46.665Z,1.63
2023-03-14T18:31:11.619Z,1.48
2023-03-14T18:32:36.484Z,2.10
2023-03-14T18:34:00.812Z,1.52
2023-03-14T18:35:24.339Z,1.60
2023-03-14T18:36:48.147Z,1.77
2023-03-14T18:38:11.791Z,1.38
2023-03-14T18:39:35.403Z,1.83
2023-03-14T18:41:04.182Z,1.55
2023-03-14T18:42:27.570Z,1.35
2023-03-14T18:43:52.394Z,1.40
2023-03-14T18:45:16.136Z,1.77
2023-03-14T18:46:39.523Z,3.03
2023-03-14T18:48:04.384Z,2.80
2023-03-14T18:49:27.876Z,2.30
2023-03-14T18:50:51.282Z,2.75
2023-03-14T18:52:14.658Z,2.08
2023-03-14T18:53:38.285Z,2.17
2023-03-14T18:55:01.664Z,1.50
2023-03-14T18:56:25.084Z,2.08
2023-03-14T18:57:48.420Z,1.70
2023-03-14T18:59:12.252Z,1.63
2023-03-14T19:00:37.165Z,1.88